Time;durP1;ratioP1;P1;durP2;ratioP2;P2;SDS_P1;SDS_P2;PMS_P1;PMS_P2;Temp;Humidity;BMP_temperature;BMP_pressure;BME280_temperature;BME280_humidity;BME280_pressure;Samples;Min_cycle;Max_cycle;Signal;HPM_P1;HPM_P2
2021/12/27 00:00:59;;;;;;;15.77;7.53;;;0.20;99.90;;;;;;6157501;23;20424;-85
2021/12/27 00:03:24;;;;;;;14.88;7.63;;;0.20;99.90;;;;;;6181566;23;20347;-84
2021/12/27 00:05:50;;;;;;;16.98;7.75;;;0.20;99.90;;;;;;6181377;23;20017;-84
2021/12/27 00:08:16;;;;;;;16.55;8.05;;;0.30;99.90;;;;;;6181794;23;20013;-84
2021/12/27 00:10:41;;;;;;;16.00;7.72;;;0.30;99.90;;;;;;6181596;23;20021;-85
2021/12/27 00:13:07;;;;;;;17.17;7.63;;;0.30;99.90;;;;;;6182437;23;20020;-85
2021/12/27 00:15:34;;;;;;;17.23;7.95;;;0.30;99.90;;;;;;6160756;23;20439;-85
2021/12/27 00:18:00;;;;;;;18.98;7.80;;;0.30;99.90;;;;;;6161565;23;20083;-84
2021/12/27 00:20:26;;;;;;;14.85;7.90;;;0.30;99.90;;;;;;6182643;23;20020;-85
2021/12/27 00:22:51;;;;;;;17.38;8.20;;;0.30;99.90;;;;;;6156007;23;37216;-85
2021/12/27 00:25:19;;;;;;;14.30;7.43;;;0.40;99.90;;;;;;6159250;23;20455;-85
2021/12/27 00:27:46;;;;;;;14.70;7.72;;;0.40;99.90;;;;;;6185698;23;20459;-85
2021/12/27 00:30:20;;;;;;;14.88;7.80;;;0.40;99.90;;;;;;6184785;23;20027;-85
2021/12/27 00:32:46;;;;;;;15.82;7.85;;;0.40;99.90;;;;;;6185451;23;20013;-85
2021/12/27 00:35:14;;;;;;;17.52;8.02;;;0.40;99.90;;;;;;6160223;23;20029;-85
2021/12/27 00:37:41;;;;;;;15.18;7.70;;;0.40;99.90;;;;;;6182466;23;20274;-85
2021/12/27 00:40:09;;;;;;;16.23;8.02;;;0.40;99.90;;;;;;6180980;23;20109;-85
2021/12/27 00:42:35;;;;;;;15.43;8.00;;;0.40;99.90;;;;;;6157304;23;20097;-85
2021/12/27 00:45:01;;;;;;;16.45;8.23;;;0.40;99.90;;;;;;6180122;23;20024;-85
2021/12/27 00:47:26;;;;;;;14.90;8.25;;;0.40;99.90;;;;;;6181663;23;20020;-86
2021/12/27 00:49:52;;;;;;;17.15;8.13;;;0.40;99.90;;;;;;6180500;23;20017;-85
2021/12/27 00:52:18;;;;;;;16.10;8.18;;;0.40;99.90;;;;;;6181003;23;20103;-85
2021/12/27 00:54:44;;;;;;;15.32;6.80;;;0.40;99.90;;;;;;6155924;23;20091;-85
2021/12/27 00:57:09;;;;;;;17.50;8.32;;;0.40;99.90;;;;;;6179404;23;20013;-85
2021/12/27 00:59:35;;;;;;;16.85;8.15;;;0.40;99.90;;;;;;6154704;23;20483;-85
2021/12/27 01:02:01;;;;;;;16.40;8.45;;;0.50;99.90;;;;;;6179630;23;20032;-85
2021/12/27 01:04:27;;;;;;;18.00;8.88;;;0.50;99.90;;;;;;6154359;23;20139;-85
2021/12/27 01:06:52;;;;;;;16.10;7.88;;;0.50;99.90;;;;;;6177050;23;20060;-85
2021/12/27 01:09:32;;;;;;;14.02;7.50;;;0.50;99.90;;;;;;6178440;23;20009;-85
2021/12/27 01:18:31;;;;;;;;;;;;;;;;;;;;;
2021/12/27 01:21:21;;;;;;;13.35;7.70;;;0.50;99.90;;;;;;6179974;23;20017;-85
2021/12/27 01:23:57;;;;;;;19.23;8.25;;;0.50;99.90;;;;;;6154020;23;20530;-85
2021/12/27 01:26:33;;;;;;;16.13;8.05;;;0.50;99.90;;;;;;6179900;23;20305;-85
2021/12/27 01:29:06;;;;;;;15.02;7.95;;;0.50;99.90;;;;;;6151552;23;20112;-85
2021/12/27 01:32:09;;;;;;;;;;;;;;;;;;;;;
2021/12/27 01:34:53;;;;;;;15.52;8.77;;;0.50;99.90;;;;;;6084139;23;20016;-85
2021/12/27 01:37:30;;;;;;;17.33;8.15;;;0.50;99.90;;;;;;6181549;23;20013;-85
2021/12/27 01:40:18;;;;;;;16.77;8.55;;;0.50;99.90;;;;;;6090613;23;20024;-85
2021/12/27 01:43:19;;;;;;;17.30;8.40;;;0.50;99.90;;;;;;6044816;23;20030;-85
2021/12/27 01:46:31;;;;;;;17.98;8.73;;;0.50;99.90;;;;;;6143342;23;20156;-85
2021/12/27 01:48:58;;;;;;;16.15;8.18;;;0.50;99.90;;;;;;6079747;23;20097;-85
2021/12/27 01:51:46;;;;;;;17.15;8.30;;;0.50;99.90;;;;;;6181131;23;20551;-86
2021/12/27 01:54:32;;;;;;;15.85;8.50;;;0.50;99.90;;;;;;6156293;23;20517;-85
2021/12/27 01:57:26;;;;;;;;;;;;;;;;;;;;;
2021/12/27 02:00:24;;;;;;;17.08;8.15;;;0.50;99.90;;;;;;6180835;23;20016;-85
2021/12/27 02:02:50;;;;;;;17.70;8.60;;;0.50;99.90;;;;;;6158555;23;20143;-85
2021/12/27 02:05:15;;;;;;;17.00;8.63;;;0.50;99.90;;;;;;6181435;23;20392;-85
2021/12/27 02:07:41;;;;;;;16.08;8.43;;;0.60;99.90;;;;;;6181591;23;20332;-85
2021/12/27 02:10:09;;;;;;;17.75;8.65;;;0.60;99.90;;;;;;6179836;23;20013;-85
2021/12/27 02:12:35;;;;;;;17.95;9.15;;;0.60;99.90;;;;;;6179179;23;20028;-85
2021/12/27 02:15:07;;;;;;;18.33;9.00;;;0.60;99.90;;;;;;6181175;23;20009;-85
2021/12/27 02:17:37;;;;;;;17.95;9.88;;;0.60;99.90;;;;;;6155419;23;20084;-85
2021/12/27 02:20:16;;;;;;;21.65;9.77;;;0.50;99.90;;;;;;6180326;23;20048;-85
2021/12/27 02:22:43;;;;;;;17.17;9.40;;;0.50;99.90;;;;;;6181426;23;20017;-85
2021/12/27 02:25:09;;;;;;;20.52;9.48;;;0.50;99.90;;;;;;6180318;23;20439;-84
2021/12/27 02:27:36;;;;;;;19.33;9.57;;;0.50;99.90;;;;;;6156536;23;20016;-85
2021/12/27 02:30:13;;;;;;;20.40;9.80;;;0.50;99.90;;;;;;6155118;23;20013;-85
2021/12/27 02:32:54;;;;;;;18.17;9.40;;;0.50;99.90;;;;;;6156133;23;20040;-85
2021/12/27 02:35:23;;;;;;;22.27;10.82;;;0.50;99.90;;;;;;6180683;23;20013;-85
2021/12/27 02:37:49;;;;;;;19.95;10.13;;;0.50;99.90;;;;;;6182490;23;20013;-85
2021/12/27 02:40:16;;;;;;;18.85;9.57;;;0.50;99.90;;;;;;6157346;23;20013;-85
2021/12/27 02:43:12;;;;;;;20.67;10.63;;;0.50;99.90;;;;;;6157445;23;20013;-85
2021/12/27 02:45:51;;;;;;;22.33;10.82;;;0.50;99.90;;;;;;6157637;23;20020;-85
2021/12/27 02:48:19;;;;;;;22.08;10.52;;;0.50;99.90;;;;;;6158431;23;20013;-85
2021/12/27 02:50:47;;;;;;;20.88;10.23;;;0.50;99.90;;;;;;6157430;23;20044;-85
2021/12/27 02:53:14;;;;;;;21.92;11.40;;;0.50;99.90;;;;;;6182888;23;20368;-85
2021/12/27 02:55:40;;;;;;;22.35;9.80;;;0.50;99.90;;;;;;6157325;23;20055;-85
2021/12/27 02:58:06;;;;;;;20.15;9.57;;;0.50;99.90;;;;;;6183051;23;20582;-84
2021/12/27 03:00:53;;;;;;;22.88;10.93;;;0.40;99.90;;;;;;6181758;23;20017;-84
2021/12/27 03:03:22;;;;;;;20.88;10.07;;;0.50;99.90;;;;;;6156747;23;20024;-85
2021/12/27 03:05:49;;;;;;;22.02;10.07;;;0.50;99.90;;;;;;6157241;23;20017;-85
2021/12/27 03:08:16;;;;;;;20.42;10.20;;;0.50;99.90;;;;;;6181542;23;20016;-85
2021/12/27 03:10:48;;;;;;;20.40;10.45;;;0.50;99.90;;;;;;6181427;23;20013;-84
2021/12/27 03:13:17;;;;;;;17.95;8.75;;;0.50;99.90;;;;;;6182703;23;20006;-85
2021/12/27 03:15:43;;;;;;;18.67;9.43;;;0.50;99.90;;;;;;6182981;23;20288;-85
2021/12/27 03:18:11;;;;;;;22.52;9.63;;;0.50;99.90;;;;;;6157254;23;20005;-85
2021/12/27 03:20:36;;;;;;;20.48;10.30;;;0.50;99.90;;;;;;6181390;23;20443;-85
2021/12/27 03:23:02;;;;;;;18.80;9.68;;;0.50;99.90;;;;;;6182297;23;20035;-85
2021/12/27 03:25:28;;;;;;;19.50;9.30;;;0.50;99.90;;;;;;6156485;23;20013;-85
2021/12/27 03:27:54;;;;;;;21.73;10.73;;;0.50;99.90;;;;;;6183977;23;20013;-85
2021/12/27 03:30:23;;;;;;;18.58;10.02;;;0.50;99.90;;;;;;6157235;23;20096;-85
2021/12/27 03:32:48;;;;;;;22.67;10.32;;;0.50;99.90;;;;;;6156541;23;20009;-85
2021/12/27 03:35:18;;;;;;;24.50;10.82;;;0.60;99.90;;;;;;6157072;23;20012;-85
2021/12/27 03:37:51;;;;;;;20.08;9.50;;;0.60;99.90;;;;;;6157234;23;20017;-85
2021/12/27 03:40:19;;;;;;;16.42;8.52;;;0.60;99.90;;;;;;6181323;23;20009;-85
2021/12/27 03:42:52;;;;;;;20.63;9.70;;;0.60;99.90;;;;;;6159134;23;20395;-85
2021/12/27 03:45:22;;;;;;;19.83;9.60;;;0.60;99.90;;;;;;6181918;23;20059;-85
2021/12/27 03:47:48;;;;;;;22.70;10.45;;;0.60;99.90;;;;;;6181692;23;20017;-85
2021/12/27 03:50:14;;;;;;;20.23;10.88;;;0.60;99.90;;;;;;6181542;23;20028;-84
2021/12/27 03:52:40;;;;;;;20.58;10.23;;;0.60;99.90;;;;;;6157002;23;20024;-85
2021/12/27 03:55:07;;;;;;;20.88;10.73;;;0.60;99.90;;;;;;6180129;23;20415;-85
2021/12/27 03:57:35;;;;;;;21.33;10.38;;;0.60;99.90;;;;;;6157805;23;20012;-85
2021/12/27 04:02:47;;;;;;;19.13;8.65;;;0.60;99.90;;;;;;6182404;23;20027;-85
2021/12/27 04:05:12;;;;;;;20.40;9.82;;;0.60;99.90;;;;;;6181776;23;20017;-85
2021/12/27 04:07:39;;;;;;;20.45;9.80;;;0.60;99.90;;;;;;6157264;23;20009;-85
2021/12/27 04:10:10;;;;;;;21.15;10.25;;;0.60;99.90;;;;;;6180685;23;20384;-84
2021/12/27 04:12:37;;;;;;;20.00;10.23;;;0.60;99.90;;;;;;6182816;23;20073;-84
2021/12/27 04:15:06;;;;;;;20.52;9.95;;;0.60;99.90;;;;;;6182269;23;20487;-85
2021/12/27 04:17:32;;;;;;;21.67;10.07;;;0.60;99.90;;;;;;6182796;23;20024;-85
2021/12/27 04:19:58;;;;;;;22.05;9.80;;;0.70;99.90;;;;;;6180078;23;20005;-85
2021/12/27 04:22:24;;;;;;;21.95;9.90;;;0.70;99.90;;;;;;6182281;23;20016;-85
2021/12/27 04:24:50;;;;;;;18.85;10.20;;;0.70;99.90;;;;;;6180919;23;20009;-84
2021/12/27 04:27:15;;;;;;;22.83;11.45;;;0.70;99.90;;;;;;6157440;23;20505;-85
2021/12/27 04:29:41;;;;;;;21.05;10.65;;;0.70;99.90;;;;;;6156897;23;20021;-85
2021/12/27 04:32:08;;;;;;;20.70;10.02;;;0.70;99.90;;;;;;6180966;23;19997;-85
2021/12/27 04:34:33;;;;;;;20.27;10.27;;;0.70;99.90;;;;;;6181308;23;20013;-85
2021/12/27 04:36:59;;;;;;;19.17;9.85;;;0.70;99.90;;;;;;6182314;23;20012;-85
2021/12/27 04:39:25;;;;;;;22.00;11.13;;;0.70;99.90;;;;;;6155277;23;20087;-85
2021/12/27 04:41:52;;;;;;;21.30;11.40;;;0.70;99.90;;;;;;6181645;23;20075;-85
2021/12/27 04:44:17;;;;;;;20.92;10.27;;;0.70;99.90;;;;;;6156789;23;20332;-85
2021/12/27 04:46:43;;;;;;;20.20;10.00;;;0.70;99.90;;;;;;6181937;23;20032;-85
2021/12/27 04:49:09;;;;;;;22.65;11.30;;;0.70;99.90;;;;;;6181718;23;20021;-85
2021/12/27 04:51:35;;;;;;;20.88;10.02;;;0.70;99.90;;;;;;6180747;23;20019;-84
2021/12/27 04:54:00;;;;;;;21.70;10.70;;;0.70;99.90;;;;;;6180305;23;20012;-84
2021/12/27 04:56:26;;;;;;;20.90;10.77;;;0.70;99.90;;;;;;6179102;23;20013;-84
2021/12/27 04:58:52;;;;;;;23.48;10.60;;;0.70;99.90;;;;;;6178810;23;20020;-84
2021/12/27 05:01:18;;;;;;;20.77;10.32;;;0.80;99.90;;;;;;6180936;23;20013;-84
2021/12/27 05:03:43;;;;;;;22.27;10.93;;;0.80;99.90;;;;;;6155136;23;20020;-84
2021/12/27 05:06:13;;;;;;;23.58;10.48;;;0.80;99.90;;;;;;6155893;23;20090;-85
2021/12/27 05:08:40;;;;;;;22.10;10.70;;;0.80;99.90;;;;;;6156062;23;20009;-85
2021/12/27 05:11:06;;;;;;;23.60;10.52;;;0.80;99.90;;;;;;6181600;23;20021;-85
2021/12/27 05:13:32;;;;;;;23.55;11.05;;;0.80;99.90;;;;;;6181698;23;20009;-85
2021/12/27 05:15:59;;;;;;;26.00;11.25;;;0.80;99.90;;;;;;6181225;23;20059;-85
2021/12/27 05:18:25;;;;;;;20.85;10.40;;;0.80;99.90;;;;;;6156098;23;20044;-85
2021/12/27 05:20:51;;;;;;;22.92;11.55;;;0.80;99.90;;;;;;6180852;23;20020;-85
2021/12/27 05:23:17;;;;;;;23.52;10.77;;;0.80;99.90;;;;;;6182643;23;20025;-85
2021/12/27 05:25:42;;;;;;;27.52;11.18;;;0.80;99.90;;;;;;6156463;23;20468;-85
2021/12/27 05:28:09;;;;;;;26.30;11.52;;;0.80;99.90;;;;;;6182417;23;20128;-85
2021/12/27 05:30:35;;;;;;;30.35;12.10;;;0.80;99.90;;;;;;6157622;23;20009;-85
2021/12/27 05:33:01;;;;;;;28.02;12.23;;;0.80;99.90;;;;;;6157066;23;20017;-85
2021/12/27 05:35:27;;;;;;;28.85;13.02;;;0.80;99.90;;;;;;6180572;23;20013;-85
2021/12/27 05:37:52;;;;;;;29.80;12.68;;;0.80;99.90;;;;;;6157314;23;20017;-86
2021/12/27 05:40:22;;;;;;;26.40;12.20;;;0.80;99.90;;;;;;6155068;23;20016;-85
2021/12/27 05:42:50;;;;;;;26.55;12.15;;;0.80;99.90;;;;;;6156341;23;20087;-85
2021/12/27 05:45:16;;;;;;;27.17;12.05;;;0.80;99.90;;;;;;6155508;23;20016;-85
2021/12/27 05:47:43;;;;;;;24.65;11.85;;;0.80;99.90;;;;;;6181396;23;20013;-85
2021/12/27 05:50:13;;;;;;;28.58;12.65;;;0.80;99.90;;;;;;6181375;23;20083;-85
2021/12/27 05:52:39;;;;;;;27.48;11.77;;;0.90;99.90;;;;;;6180940;23;20071;-86
2021/12/27 05:55:06;;;;;;;26.25;12.38;;;0.80;99.90;;;;;;6153020;23;20006;-85
2021/12/27 05:57:32;;;;;;;26.38;12.57;;;0.80;99.90;;;;;;6156248;23;20501;-85
2021/12/27 05:59:58;;;;;;;26.70;11.85;;;0.90;99.90;;;;;;6153726;23;20471;-85
2021/12/27 06:02:24;;;;;;;28.00;11.85;;;0.90;99.90;;;;;;6176704;23;20017;-85
2021/12/27 06:04:50;;;;;;;27.25;12.20;;;0.90;99.90;;;;;;6155459;23;20017;-85
2021/12/27 06:07:16;;;;;;;27.13;12.25;;;0.90;99.90;;;;;;6181343;23;20016;-85
2021/12/27 06:09:42;;;;;;;29.85;12.30;;;0.90;99.90;;;;;;6154047;23;20013;-85
2021/12/27 06:12:08;;;;;;;29.90;12.68;;;0.90;99.90;;;;;;6182488;23;20071;-85
2021/12/27 06:14:33;;;;;;;35.00;14.13;;;0.90;99.90;;;;;;6181981;23;20399;-85
2021/12/27 06:16:59;;;;;;;29.90;12.75;;;0.90;99.90;;;;;;6183187;23;20115;-85
2021/12/27 06:19:25;;;;;;;31.83;13.77;;;0.90;99.90;;;;;;6180581;23;20017;-85
2021/12/27 06:21:51;;;;;;;36.92;13.60;;;0.90;99.90;;;;;;6157089;23;20067;-85
2021/12/27 06:24:17;;;;;;;40.00;13.82;;;0.90;99.90;;;;;;6153910;23;20139;-85
2021/12/27 06:26:43;;;;;;;40.50;14.15;;;0.90;99.90;;;;;;6182473;23;20040;-85
2021/12/27 06:29:08;;;;;;;40.28;14.43;;;0.90;99.90;;;;;;6182177;23;20016;-85
2021/12/27 06:31:34;;;;;;;35.85;12.50;;;0.90;99.90;;;;;;6181484;23;20017;-85
2021/12/27 06:34:00;;;;;;;36.83;14.48;;;0.90;99.90;;;;;;6180301;23;20045;-85
2021/12/27 06:36:25;;;;;;;34.83;13.40;;;0.90;99.90;;;;;;6181963;23;20474;-85
2021/12/27 06:38:51;;;;;;;52.78;14.93;;;0.90;99.90;;;;;;6155239;23;20013;-85
2021/12/27 06:41:17;;;;;;;35.50;13.70;;;0.90;99.90;;;;;;6181086;23;20092;-85
2021/12/27 06:43:42;;;;;;;42.80;14.25;;;0.90;99.90;;;;;;6181765;23;20625;-86
2021/12/27 06:46:08;;;;;;;46.83;15.68;;;0.90;99.90;;;;;;6181675;23;20352;-86
2021/12/27 06:48:34;;;;;;;47.08;14.98;;;0.90;99.90;;;;;;6156670;23;20048;-86
2021/12/27 06:51:00;;;;;;;51.28;15.27;;;0.90;99.90;;;;;;6180497;23;20010;-86
2021/12/27 06:53:30;;;;;;;47.45;13.93;;;0.90;99.90;;;;;;6179347;23;20005;-86
2021/12/27 06:55:57;;;;;;;50.90;16.02;;;0.90;99.90;;;;;;6181026;23;20048;-85
2021/12/27 06:58:23;;;;;;;39.67;14.43;;;1.00;99.90;;;;;;6180971;23;20546;-85
2021/12/27 07:00:49;;;;;;;65.38;15.73;;;0.90;99.90;;;;;;6180640;23;20059;-85
2021/12/27 07:03:14;;;;;;;73.35;17.08;;;1.00;99.90;;;;;;6156034;23;20017;-85
2021/12/27 07:05:41;;;;;;;50.03;14.38;;;1.00;99.90;;;;;;6180377;23;20017;-85
2021/12/27 07:08:07;;;;;;;54.08;16.48;;;1.00;99.90;;;;;;6155538;23;20017;-85
2021/12/27 07:10:33;;;;;;;65.43;16.45;;;1.00;99.90;;;;;;6178899;23;20623;-85
2021/12/27 07:13:01;;;;;;;53.70;16.08;;;1.00;99.90;;;;;;6156574;23;20078;-85
2021/12/27 07:15:27;;;;;;;61.10;17.48;;;1.00;99.90;;;;;;6155039;23;20024;-85
2021/12/27 07:17:53;;;;;;;54.95;16.48;;;1.00;99.90;;;;;;6179945;23;20522;-85
2021/12/27 07:20:19;;;;;;;63.13;17.02;;;1.00;99.90;;;;;;6156402;23;20041;-85
2021/12/27 07:22:47;;;;;;;65.50;17.33;;;1.00;99.90;;;;;;6156224;23;20060;-85
2021/12/27 07:25:12;;;;;;;80.18;18.10;;;1.10;99.90;;;;;;6154500;23;20103;-85
2021/12/27 07:27:38;;;;;;;59.45;15.93;;;1.10;99.90;;;;;;6180792;23;20395;-85
2021/12/27 07:30:11;;;;;;;72.80;19.50;;;1.10;99.90;;;;;;6180585;23;20032;-85
2021/12/27 07:32:37;;;;;;;55.00;16.02;;;1.10;99.90;;;;;;6180207;23;20016;-85
2021/12/27 07:35:04;;;;;;;71.60;17.35;;;1.10;99.90;;;;;;6156174;23;20045;-85
2021/12/27 07:37:30;;;;;;;62.00;17.65;;;1.10;99.90;;;;;;6181015;23;20012;-85
2021/12/27 07:39:56;;;;;;;64.40;15.75;;;1.10;99.90;;;;;;6178207;23;20387;-85
2021/12/27 07:42:22;;;;;;;54.40;15.52;;;1.10;99.90;;;;;;6156212;23;20323;-85
2021/12/27 07:44:48;;;;;;;59.60;15.07;;;1.10;99.90;;;;;;6155706;23;20100;-85
2021/12/27 07:47:14;;;;;;;53.47;14.85;;;1.10;99.90;;;;;;6181352;23;20340;-85
2021/12/27 07:49:40;;;;;;;57.47;15.98;;;1.20;99.90;;;;;;6154401;23;20032;-85
2021/12/27 07:52:06;;;;;;;50.38;13.57;;;1.20;99.90;;;;;;6180566;23;20017;-86
2021/12/27 07:54:33;;;;;;;44.30;14.60;;;1.20;99.90;;;;;;6153751;23;20015;-86
2021/12/27 07:57:00;;;;;;;60.88;16.45;;;1.20;99.90;;;;;;6154839;23;20012;-86
2021/12/27 07:59:27;;;;;;;60.28;15.82;;;1.30;99.90;;;;;;6155896;23;20017;-86
2021/12/27 08:01:52;;;;;;;73.97;17.30;;;1.30;99.90;;;;;;6154775;23;20466;-86
2021/12/27 08:04:18;;;;;;;56.17;15.30;;;1.30;99.90;;;;;;6181216;23;20017;-86
2021/12/27 08:06:44;;;;;;;52.65;15.65;;;1.30;99.90;;;;;;6156528;23;20398;-86
2021/12/27 08:09:10;;;;;;;53.25;14.95;;;1.30;99.90;;;;;;6177978;23;20328;-86
2021/12/27 08:11:36;;;;;;;50.25;16.00;;;1.30;99.90;;;;;;6155285;23;20013;-86
2021/12/27 08:14:03;;;;;;;58.17;15.63;;;1.30;99.90;;;;;;6179689;23;20013;-86
2021/12/27 08:16:29;;;;;;;60.80;15.68;;;1.30;99.90;;;;;;6176716;23;20013;-86
2021/12/27 08:18:56;;;;;;;52.17;15.27;;;1.40;99.90;;;;;;6178864;23;20009;-86
2021/12/27 08:21:23;;;;;;;57.58;15.00;;;1.40;99.90;;;;;;6178957;23;20028;-86
2021/12/27 08:23:50;;;;;;;53.85;15.45;;;1.40;99.90;;;;;;6177479;23;20059;-86
2021/12/27 08:26:16;;;;;;;68.28;16.58;;;1.40;99.90;;;;;;6179652;23;20028;-86
2021/12/27 08:28:43;;;;;;;67.43;16.23;;;1.40;99.90;;;;;;6177727;23;20143;-85
2021/12/27 08:31:09;;;;;;;73.88;17.00;;;1.50;99.90;;;;;;6176050;23;20028;-86
2021/12/27 08:33:34;;;;;;;49.40;15.05;;;1.50;99.90;;;;;;6180619;23;20013;-86
2021/12/27 08:36:01;;;;;;;75.82;16.50;;;1.50;99.90;;;;;;6156357;23;20032;-86
2021/12/27 08:38:26;;;;;;;78.40;17.42;;;1.50;99.90;;;;;;6179773;23;20009;-86
2021/12/27 08:40:52;;;;;;;83.75;19.75;;;1.50;99.90;;;;;;6180482;23;20072;-86
2021/12/27 08:43:17;;;;;;;78.10;17.02;;;1.50;99.90;;;;;;6180486;23;20092;-86
2021/12/27 08:45:43;;;;;;;101.45;19.63;;;1.60;99.90;;;;;;6155558;23;20039;-86
2021/12/27 08:48:09;;;;;;;91.00;19.10;;;1.60;99.90;;;;;;6179282;23;20021;-85
2021/12/27 08:50:37;;;;;;;69.30;16.38;;;1.60;99.90;;;;;;6178744;23;20352;-85
2021/12/27 08:53:06;;;;;;;107.50;21.08;;;1.60;99.90;;;;;;6179532;23;20028;-86
2021/12/27 08:55:37;;;;;;;82.40;17.98;;;1.60;99.90;;;;;;6178807;23;20032;-86
2021/12/27 08:58:04;;;;;;;90.55;17.17;;;1.60;99.90;;;;;;6154683;23;20092;-86
2021/12/27 09:00:29;;;;;;;74.72;18.15;;;1.60;99.90;;;;;;6176861;23;20021;-86
2021/12/27 09:02:58;;;;;;;62.88;16.15;;;1.60;99.90;;;;;;6153691;23;20040;-87
2021/12/27 09:05:24;;;;;;;73.78;16.77;;;1.60;99.90;;;;;;6153424;23;20139;-86
2021/12/27 09:07:50;;;;;;;95.05;20.33;;;1.70;99.90;;;;;;6166610;23;20020;-86
2021/12/27 09:10:16;;;;;;;104.38;19.10;;;1.70;99.90;;;;;;6151246;23;20009;-86
2021/12/27 09:12:43;;;;;;;111.45;21.05;;;1.70;99.90;;;;;;6177437;23;20013;-86
2021/12/27 09:15:10;;;;;;;83.95;16.92;;;1.80;99.90;;;;;;6146568;23;20009;-86
2021/12/27 09:17:36;;;;;;;98.95;19.58;;;1.80;99.90;;;;;;6153174;23;20009;-86
2021/12/27 09:20:04;;;;;;;82.15;21.05;;;1.80;99.90;;;;;;6179657;23;20013;-86
2021/12/27 09:22:29;;;;;;;98.82;20.20;;;1.80;99.90;;;;;;6180554;23;20020;-86
2021/12/27 09:24:55;;;;;;;107.20;19.30;;;1.90;99.90;;;;;;6179289;23;20024;-86
2021/12/27 09:27:21;;;;;;;92.05;19.80;;;1.90;99.90;;;;;;6180057;23;20044;-86
2021/12/27 09:29:46;;;;;;;95.95;19.02;;;1.90;99.90;;;;;;6154301;23;20017;-86
2021/12/27 09:32:13;;;;;;;107.00;20.83;;;1.90;99.90;;;;;;6154254;23;20400;-86
2021/12/27 09:34:39;;;;;;;88.70;20.92;;;2.00;99.90;;;;;;6156567;23;20092;-86
2021/12/27 09:37:06;;;;;;;84.88;17.70;;;2.00;99.90;;;;;;6154532;23;20070;-86
2021/12/27 09:39:32;;;;;;;99.32;21.95;;;2.10;99.90;;;;;;6182539;23;20005;-86
2021/12/27 09:41:57;;;;;;;110.85;19.45;;;2.00;99.90;;;;;;6181344;23;20017;-86
2021/12/27 09:44:23;;;;;;;92.13;19.45;;;2.00;99.90;;;;;;6179068;23;20113;-86
2021/12/27 09:46:50;;;;;;;117.88;20.15;;;2.10;99.90;;;;;;6147352;23;20433;-86
2021/12/27 09:49:18;;;;;;;108.78;20.58;;;2.10;99.90;;;;;;6177671;23;20056;-86
2021/12/27 09:51:45;;;;;;;102.90;19.40;;;2.10;99.90;;;;;;6151219;23;20071;-86
2021/12/27 09:54:10;;;;;;;89.30;18.88;;;2.20;99.90;;;;;;6149995;23;20045;-86
2021/12/27 09:56:36;;;;;;;114.45;21.88;;;2.20;99.90;;;;;;6178723;23;20013;-86
2021/12/27 09:59:06;;;;;;;92.82;20.67;;;2.20;99.90;;;;;;6178189;23;20013;-86
2021/12/27 10:01:32;;;;;;;68.45;17.15;;;2.30;99.90;;;;;;6161702;23;20340;-86
2021/12/27 10:04:00;;;;;;;71.28;17.70;;;2.30;99.90;;;;;;6153502;23;20017;-86
2021/12/27 10:06:27;;;;;;;86.57;18.15;;;2.30;99.90;;;;;;6177427;23;20455;-86
2021/12/27 10:08:56;;;;;;;73.70;18.80;;;2.30;99.90;;;;;;6151225;23;20028;-86
2021/12/27 10:11:25;;;;;;;72.68;19.27;;;2.30;99.90;;;;;;6177782;23;20039;-86
2021/12/27 10:14:12;;;;;;;84.50;17.02;;;2.40;99.90;;;;;;6152467;23;20455;-86
2021/12/27 10:16:49;;;;;;;80.32;18.85;;;2.40;99.90;;;;;;6149500;23;20325;-86
2021/12/27 10:19:16;;;;;;;79.60;19.27;;;2.50;99.90;;;;;;6173371;23;20415;-86
2021/12/27 10:21:47;;;;;;;74.43;18.38;;;2.40;99.90;;;;;;6177935;23;20017;-86
2021/12/27 10:24:17;;;;;;;94.75;20.48;;;2.50;99.90;;;;;;6175766;23;20021;-87
2021/12/27 10:26:45;;;;;;;92.82;19.55;;;2.50;99.90;;;;;;6176510;23;20052;-86
2021/12/27 10:29:22;;;;;;;80.38;18.80;;;2.60;99.90;;;;;;6154728;23;20597;-86
2021/12/27 10:31:54;;;;;;;86.68;20.38;;;2.70;99.90;;;;;;6176714;23;20510;-86
2021/12/27 10:34:21;;;;;;;73.00;19.15;;;2.80;99.90;;;;;;6174910;23;20093;-87
2021/12/27 10:37:21;;;;;;;84.25;19.27;;;2.90;99.90;;;;;;6179414;23;20009;-87
2021/12/27 10:39:55;;;;;;;91.75;20.90;;;2.90;99.90;;;;;;6149730;23;20477;-86
2021/12/27 10:42:31;;;;;;;65.65;16.33;;;3.00;99.90;;;;;;6153678;23;20237;-87
2021/12/27 10:45:03;;;;;;;115.03;22.77;;;3.00;99.90;;;;;;6174707;23;20087;-86
2021/12/27 10:47:49;;;;;;;91.38;20.60;;;3.00;99.90;;;;;;6175536;23;20031;-86
2021/12/27 10:50:26;;;;;;;108.40;21.73;;;3.00;99.90;;;;;;6179510;23;20021;-86
2021/12/27 10:53:03;;;;;;;66.10;16.10;;;3.00;99.90;;;;;;6151204;23;20079;-86
2021/12/27 10:55:38;;;;;;;64.88;17.20;;;3.00;99.90;;;;;;6149762;23;20009;-86
2021/12/27 10:58:19;;;;;;;99.63;21.95;;;2.90;99.90;;;;;;6179181;23;20120;-86
2021/12/27 11:00:59;;;;;;;89.15;18.98;;;2.90;99.90;;;;;;6151267;23;20019;-87
2021/12/27 11:03:37;;;;;;;108.38;21.80;;;2.90;99.90;;;;;;6151297;23;20063;-87
2021/12/27 11:09:34;;;;;;;83.57;19.27;;;2.90;99.90;;;;;;6169801;23;20348;-86
2021/12/27 11:12:01;;;;;;;125.82;21.65;;;2.90;99.90;;;;;;6174750;23;20462;-87
2021/12/27 11:14:27;;;;;;;118.25;24.83;;;2.90;99.90;;;;;;6173681;23;20013;-86
2021/12/27 11:16:53;;;;;;;93.63;22.00;;;2.90;99.90;;;;;;6176532;23;20009;-86
2021/12/27 11:19:19;;;;;;;100.40;21.67;;;3.00;99.90;;;;;;6175370;23;20032;-86
2021/12/27 11:21:48;;;;;;;76.32;17.60;;;3.00;99.90;;;;;;6151305;23;20538;-86
2021/12/27 11:24:14;;;;;;;69.50;18.00;;;3.10;99.90;;;;;;6149043;23;20092;-86
2021/12/27 11:26:41;;;;;;;87.70;20.83;;;3.10;99.90;;;;;;6153374;23;20012;-86
2021/12/27 11:29:21;;;;;;;95.95;21.25;;;3.10;99.90;;;;;;6176005;23;20491;-87
2021/12/27 11:31:50;;;;;;;98.25;21.52;;;3.10;99.90;;;;;;6152092;23;20098;-87
2021/12/27 11:34:18;;;;;;;104.25;22.80;;;3.10;99.90;;;;;;6151009;23;20062;-87
2021/12/27 11:36:47;;;;;;;87.05;19.42;;;3.10;99.90;;;;;;6151672;23;20017;-87
2021/12/27 11:39:28;;;;;;;106.72;22.85;;;3.10;99.90;;;;;;6174150;23;20088;-87
2021/12/27 11:42:06;;;;;;;128.90;25.83;;;3.10;99.90;;;;;;6150164;23;20084;-87
2021/12/27 11:44:34;;;;;;;99.43;21.58;;;3.10;99.90;;;;;;6177162;23;20040;-87
2021/12/27 11:47:00;;;;;;;73.15;17.30;;;3.20;99.90;;;;;;6175216;23;20032;-86
2021/12/27 11:49:52;;;;;;;84.53;20.85;;;3.20;99.90;;;;;;6151926;23;20347;-87
2021/12/27 11:52:23;;;;;;;83.43;19.98;;;3.30;99.90;;;;;;6179113;23;20478;-87
2021/12/27 11:54:59;;;;;;;75.72;19.58;;;3.30;99.90;;;;;;6153587;23;20020;-87
2021/12/27 11:57:44;;;;;;;93.95;22.30;;;3.30;99.90;;;;;;6180748;23;20004;-87
2021/12/27 12:00:23;;;;;;;74.38;20.15;;;3.30;99.90;;;;;;6177470;23;20009;-87
2021/12/27 12:02:55;;;;;;;80.75;18.60;;;3.40;99.90;;;;;;6179171;23;20395;-87
2021/12/27 12:05:45;;;;;;;69.43;19.67;;;3.40;99.90;;;;;;6152827;23;20013;-87
2021/12/27 12:08:16;;;;;;;90.07;21.48;;;3.40;99.90;;;;;;6177855;23;20020;-86
2021/12/27 12:10:59;;;;;;;78.07;21.02;;;3.50;99.90;;;;;;6151810;23;20048;-86
2021/12/27 12:13:39;;;;;;;78.30;20.42;;;3.50;99.90;;;;;;6178764;23;20072;-86
2021/12/27 12:16:14;;;;;;;79.35;22.85;;;3.60;99.90;;;;;;6176128;23;20013;-87
2021/12/27 12:19:00;;;;;;;61.58;19.35;;;3.90;99.90;;;;;;6148758;23;20037;-87
2021/12/27 12:21:34;;;;;;;72.40;21.30;;;4.30;99.90;;;;;;6153330;23;20013;-87
2021/12/27 12:24:04;;;;;;;63.95;19.83;;;4.50;99.90;;;;;;6153111;23;20277;-87
2021/12/27 12:26:46;;;;;;;52.50;18.15;;;4.70;99.90;;;;;;6177928;23;20451;-87
2021/12/27 12:29:12;;;;;;;44.53;16.13;;;4.90;99.90;;;;;;6152263;23;20024;-87
2021/12/27 12:31:37;;;;;;;43.58;17.08;;;5.10;99.90;;;;;;6152947;23;20095;-87
2021/12/27 12:34:11;;;;;;;36.08;14.57;;;5.30;99.90;;;;;;6147663;23;20017;-87
2021/12/27 12:36:48;;;;;;;46.97;16.48;;;5.60;99.90;;;;;;6148093;23;20013;-87
2021/12/27 12:39:14;;;;;;;34.42;13.38;;;5.50;99.90;;;;;;6174774;23;20100;-87
2021/12/27 12:41:41;;;;;;;35.28;13.90;;;5.30;99.90;;;;;;6152204;23;20001;-87
2021/12/27 12:44:07;;;;;;;38.47;13.85;;;5.20;99.90;;;;;;6125281;23;20076;-86
2021/12/27 12:46:45;;;;;;;38.20;14.93;;;5.00;99.90;;;;;;6177525;23;20017;-86
2021/12/27 12:49:26;;;;;;;37.90;15.38;;;4.90;99.90;;;;;;6177205;23;20025;-87
2021/12/27 12:51:53;;;;;;;40.53;15.75;;;4.80;99.90;;;;;;6178072;23;20449;-86
2021/12/27 12:54:24;;;;;;;39.03;15.65;;;4.80;99.90;;;;;;6177854;23;20466;-87
2021/12/27 12:56:50;;;;;;;35.67;14.57;;;4.80;99.90;;;;;;6171829;23;20056;-87
2021/12/27 12:59:21;;;;;;;44.05;14.40;;;4.70;99.90;;;;;;6152110;23;20430;-87
2021/12/27 13:32:06;;;;;;;27.90;11.88;;;4.30;99.90;;;;;;6116638;23;20256;-86
2021/12/27 13:34:32;;;;;;;28.25;11.88;;;4.30;99.90;;;;;;6177065;23;20417;-86
2021/12/27 13:37:02;;;;;;;26.08;10.60;;;4.30;99.90;;;;;;6175169;23;20471;-86